sensor_id;sensor_type;location;lat;lon;timestamp;P1;durP1;ratioP1;P2;durP2;ratioP2
20908;SDS011;10614;53.198;6.570;2023-02-03T00:01:38;5.55;;;0.98;;
20908;SDS011;10614;53.198;6.570;2023-02-03T00:03:39;2.50;;;1.20;;
20908;SDS011;10614;53.198;6.570;2023-02-03T00:05:41;7.57;;;1.27;;
20908;SDS011;10614;53.198;6.570;2023-02-03T00:07:43;1.70;;;0.80;;
20908;SDS011;10614;53.198;6.570;2023-02-03T00:09:45;3.03;;;1.10;;
20908;SDS011;10614;53.198;6.570;2023-02-03T00:11:48;5.30;;;1.67;;
20908;SDS011;10614;53.198;6.570;2023-02-03T00:13:50;6.70;;;1.13;;
20908;SDS011;10614;53.198;6.570;2023-02-03T00:15:51;5.07;;;0.93;;
20908;SDS011;10614;53.198;6.570;2023-02-03T00:17:53;6.47;;;1.10;;
20908;SDS011;10614;53.198;6.570;2023-02-03T00:19:55;7.60;;;1.10;;
20908;SDS011;10614;53.198;6.570;2023-02-03T00:21:56;7.93;;;1.17;;
20908;SDS011;10614;53.198;6.570;2023-02-03T00:23:58;5.30;;;1.27;;
20908;SDS011;10614;53.198;6.570;2023-02-03T00:26:05;4.68;;;1.00;;
20908;SDS011;10614;53.198;6.570;2023-02-03T00:28:08;4.20;;;1.17;;
20908;SDS011;10614;53.198;6.570;2023-02-03T00:30:10;4.05;;;1.40;;
20908;SDS011;10614;53.198;6.570;2023-02-03T00:32:12;7.57;;;1.17;;
20908;SDS011;10614;53.198;6.570;2023-02-03T00:34:14;4.05;;;1.38;;
20908;SDS011;10614;53.198;6.570;2023-02-03T00:36:15;5.68;;;1.33;;
20908;SDS011;10614;53.198;6.570;2023-02-03T00:38:17;7.63;;;1.25;;
20908;SDS011;10614;53.198;6.570;2023-02-03T00:40:19;4.18;;;1.17;;
20908;SDS011;10614;53.198;6.570;2023-02-03T00:42:22;7.05;;;1.10;;
20908;SDS011;10614;53.198;6.570;2023-02-03T00:44:24;4.32;;;0.90;;
20908;SDS011;10614;53.198;6.570;2023-02-03T00:46:26;5.03;;;1.30;;
20908;SDS011;10614;53.198;6.570;2023-02-03T00:48:28;3.30;;;1.13;;
20908;SDS011;10614;53.198;6.570;2023-02-03T00:50:29;5.47;;;1.08;;
20908;SDS011;10614;53.198;6.570;2023-02-03T00:52:31;5.35;;;1.10;;
20908;SDS011;10614;53.198;6.570;2023-02-03T00:54:33;6.40;;;1.20;;
20908;SDS011;10614;53.198;6.570;2023-02-03T00:56:34;3.70;;;0.93;;
20908;SDS011;10614;53.198;6.570;2023-02-03T00:58:36;9.75;;;1.20;;
20908;SDS011;10614;53.198;6.570;2023-02-03T01:00:39;5.55;;;1.30;;
20908;SDS011;10614;53.198;6.570;2023-02-03T01:02:41;5.70;;;1.23;;
20908;SDS011;10614;53.198;6.570;2023-02-03T01:04:42;2.38;;;0.85;;
20908;SDS011;10614;53.198;6.570;2023-02-03T01:06:44;6.40;;;1.13;;
20908;SDS011;10614;53.198;6.570;2023-02-03T01:08:46;7.20;;;1.05;;
20908;SDS011;10614;53.198;6.570;2023-02-03T01:10:48;5.88;;;1.73;;
20908;SDS011;10614;53.198;6.570;2023-02-03T01:12:50;5.10;;;1.00;;
20908;SDS011;10614;53.198;6.570;2023-02-03T01:14:52;8.27;;;1.30;;
20908;SDS011;10614;53.198;6.570;2023-02-03T01:16:55;7.55;;;1.13;;
20908;SDS011;10614;53.198;6.570;2023-02-03T01:18:56;4.20;;;0.73;;
20908;SDS011;10614;53.198;6.570;2023-02-03T01:21:02;5.68;;;1.58;;
20908;SDS011;10614;53.198;6.570;2023-02-03T01:23:05;6.75;;;1.33;;
20908;SDS011;10614;53.198;6.570;2023-02-03T01:25:07;6.57;;;1.02;;
20908;SDS011;10614;53.198;6.570;2023-02-03T01:27:09;4.00;;;1.35;;
20908;SDS011;10614;53.198;6.570;2023-02-03T01:29:11;10.52;;;1.38;;
20908;SDS011;10614;53.198;6.570;2023-02-03T01:31:13;4.25;;;1.50;;
20908;SDS011;10614;53.198;6.570;2023-02-03T01:33:17;6.60;;;1.27;;
20908;SDS011;10614;53.198;6.570;2023-02-03T01:35:18;7.13;;;1.00;;
20908;SDS011;10614;53.198;6.570;2023-02-03T01:37:20;3.92;;;1.10;;
20908;SDS011;10614;53.198;6.570;2023-02-03T01:39:22;4.80;;;0.85;;
20908;SDS011;10614;53.198;6.570;2023-02-03T01:41:25;6.95;;;1.52;;
20908;SDS011;10614;53.198;6.570;2023-02-03T01:43:30;5.03;;;0.90;;
20908;SDS011;10614;53.198;6.570;2023-02-03T01:45:32;6.13;;;1.20;;
20908;SDS011;10614;53.198;6.570;2023-02-03T01:47:35;8.32;;;1.02;;
20908;SDS011;10614;53.198;6.570;2023-02-03T01:49:47;7.78;;;1.33;;
20908;SDS011;10614;53.198;6.570;2023-02-03T01:51:52;4.25;;;1.00;;
20908;SDS011;10614;53.198;6.570;2023-02-03T01:53:54;5.88;;;1.20;;
20908;SDS011;10614;53.198;6.570;2023-02-03T01:55:57;10.52;;;1.08;;
20908;SDS011;10614;53.198;6.570;2023-02-03T01:58:00;6.38;;;1.48;;
20908;SDS011;10614;53.198;6.570;2023-02-03T02:00:06;3.30;;;1.17;;
20908;SDS011;10614;53.198;6.570;2023-02-03T02:02:09;6.38;;;1.55;;
20908;SDS011;10614;53.198;6.570;2023-02-03T02:04:11;11.75;;;1.27;;
20908;SDS011;10614;53.198;6.570;2023-02-03T02:06:14;4.80;;;1.52;;
20908;SDS011;10614;53.198;6.570;2023-02-03T02:08:17;6.57;;;1.20;;
20908;SDS011;10614;53.198;6.570;2023-02-03T02:10:21;3.60;;;1.17;;
20908;SDS011;10614;53.198;6.570;2023-02-03T02:12:23;4.60;;;1.10;;
20908;SDS011;10614;53.198;6.570;2023-02-03T02:14:25;9.23;;;1.85;;
20908;SDS011;10614;53.198;6.570;2023-02-03T02:16:28;10.60;;;1.30;;
20908;SDS011;10614;53.198;6.570;2023-02-03T02:18:42;7.00;;;1.30;;
20908;SDS011;10614;53.198;6.570;2023-02-03T02:21:04;6.35;;;1.27;;
20908;SDS011;10614;53.198;6.570;2023-02-03T02:23:50;8.90;;;2.30;;
20908;SDS011;10614;53.198;6.570;2023-02-03T02:26:16;6.22;;;1.25;;
20908;SDS011;10614;53.198;6.570;2023-02-03T02:28:52;9.48;;;1.48;;
20908;SDS011;10614;53.198;6.570;2023-02-03T02:33:42;4.68;;;1.20;;
20908;SDS011;10614;53.198;6.570;2023-02-03T02:35:54;8.52;;;1.33;;
20908;SDS011;10614;53.198;6.570;2023-02-03T02:37:58;4.68;;;1.17;;
20908;SDS011;10614;53.198;6.570;2023-02-03T02:40:06;8.15;;;1.10;;
20908;SDS011;10614;53.198;6.570;2023-02-03T02:44:29;7.68;;;1.52;;
20908;SDS011;10614;53.198;6.570;2023-02-03T02:46:34;10.60;;;1.88;;
20908;SDS011;10614;53.198;6.570;2023-02-03T02:48:43;5.78;;;1.40;;
20908;SDS011;10614;53.198;6.570;2023-02-03T02:50:49;8.02;;;0.85;;
20908;SDS011;10614;53.198;6.570;2023-02-03T02:52:55;8.27;;;1.00;;
20908;SDS011;10614;53.198;6.570;2023-02-03T02:54:59;8.93;;;1.40;;
20908;SDS011;10614;53.198;6.570;2023-02-03T02:57:04;6.45;;;1.17;;
20908;SDS011;10614;53.198;6.570;2023-02-03T03:01:11;7.35;;;1.67;;
20908;SDS011;10614;53.198;6.570;2023-02-03T03:03:17;10.20;;;1.33;;
20908;SDS011;10614;53.198;6.570;2023-02-03T03:05:20;5.07;;;1.23;;
20908;SDS011;10614;53.198;6.570;2023-02-03T03:07:22;5.70;;;1.45;;
20908;SDS011;10614;53.198;6.570;2023-02-03T03:09:28;8.77;;;1.55;;
20908;SDS011;10614;53.198;6.570;2023-02-03T03:11:36;6.85;;;1.35;;
20908;SDS011;10614;53.198;6.570;2023-02-03T03:13:42;7.50;;;1.30;;
20908;SDS011;10614;53.198;6.570;2023-02-03T03:15:53;6.07;;;1.48;;
20908;SDS011;10614;53.198;6.570;2023-02-03T03:18:00;7.43;;;1.70;;
20908;SDS011;10614;53.198;6.570;2023-02-03T03:20:08;8.52;;;1.40;;
20908;SDS011;10614;53.198;6.570;2023-02-03T03:22:16;6.18;;;1.90;;
20908;SDS011;10614;53.198;6.570;2023-02-03T03:24:23;7.18;;;1.45;;
20908;SDS011;10614;53.198;6.570;2023-02-03T03:26:29;9.65;;;1.20;;
20908;SDS011;10614;53.198;6.570;2023-02-03T03:28:36;13.20;;;1.50;;
20908;SDS011;10614;53.198;6.570;2023-02-03T03:30:44;10.80;;;1.77;;
20908;SDS011;10614;53.198;6.570;2023-02-03T03:32:45;8.13;;;1.70;;
20908;SDS011;10614;53.198;6.570;2023-02-03T03:34:47;5.55;;;1.50;;
20908;SDS011;10614;53.198;6.570;2023-02-03T03:36:52;10.45;;;1.52;;
20908;SDS011;10614;53.198;6.570;2023-02-03T03:39:01;5.18;;;1.17;;
20908;SDS011;10614;53.198;6.570;2023-02-03T03:41:06;8.00;;;1.35;;
20908;SDS011;10614;53.198;6.570;2023-02-03T03:43:14;11.45;;;1.63;;
20908;SDS011;10614;53.198;6.570;2023-02-03T03:45:21;9.30;;;1.65;;
20908;SDS011;10614;53.198;6.570;2023-02-03T03:47:27;7.30;;;1.67;;
20908;SDS011;10614;53.198;6.570;2023-02-03T03:49:34;7.95;;;1.40;;
20908;SDS011;10614;53.198;6.570;2023-02-03T03:51:39;8.25;;;1.48;;
20908;SDS011;10614;53.198;6.570;2023-02-03T03:53:46;7.00;;;2.05;;
20908;SDS011;10614;53.198;6.570;2023-02-03T03:55:51;5.47;;;1.23;;
20908;SDS011;10614;53.198;6.570;2023-02-03T03:57:55;7.85;;;1.77;;
20908;SDS011;10614;53.198;6.570;2023-02-03T04:00:00;10.02;;;2.28;;
20908;SDS011;10614;53.198;6.570;2023-02-03T04:02:05;6.82;;;1.25;;
20908;SDS011;10614;53.198;6.570;2023-02-03T04:04:08;5.45;;;1.33;;
20908;SDS011;10614;53.198;6.570;2023-02-03T04:06:11;5.20;;;1.48;;
20908;SDS011;10614;53.198;6.570;2023-02-03T04:08:13;8.85;;;1.40;;
20908;SDS011;10614;53.198;6.570;2023-02-03T04:10:17;7.10;;;1.73;;
20908;SDS011;10614;53.198;6.570;2023-02-03T04:12:25;4.82;;;1.05;;
20908;SDS011;10614;53.198;6.570;2023-02-03T04:14:26;8.02;;;1.50;;
20908;SDS011;10614;53.198;6.570;2023-02-03T04:16:29;6.65;;;1.55;;
20908;SDS011;10614;53.198;6.570;2023-02-03T04:18:30;4.00;;;1.30;;
20908;SDS011;10614;53.198;6.570;2023-02-03T04:20:32;10.95;;;1.38;;
20908;SDS011;10614;53.198;6.570;2023-02-03T04:22:34;10.23;;;1.80;;
20908;SDS011;10614;53.198;6.570;2023-02-03T04:24:35;9.02;;;1.40;;
20908;SDS011;10614;53.198;6.570;2023-02-03T04:26:38;14.43;;;1.40;;
20908;SDS011;10614;53.198;6.570;2023-02-03T04:28:40;13.02;;;1.42;;
20908;SDS011;10614;53.198;6.570;2023-02-03T04:30:43;11.00;;;2.60;;
20908;SDS011;10614;53.198;6.570;2023-02-03T04:32:45;7.43;;;1.63;;
20908;SDS011;10614;53.198;6.570;2023-02-03T04:34:47;6.78;;;1.17;;
20908;SDS011;10614;53.198;6.570;2023-02-03T04:36:49;11.52;;;1.50;;
20908;SDS011;10614;53.198;6.570;2023-02-03T04:38:50;3.72;;;0.98;;
20908;SDS011;10614;53.198;6.570;2023-02-03T04:40:52;7.32;;;1.05;;
20908;SDS011;10614;53.198;6.570;2023-02-03T04:42:55;10.50;;;1.50;;
20908;SDS011;10614;53.198;6.570;2023-02-03T04:44:57;5.78;;;1.50;;
20908;SDS011;10614;53.198;6.570;2023-02-03T04:46:58;4.07;;;1.63;;
20908;SDS011;10614;53.198;6.570;2023-02-03T04:49:00;6.78;;;1.55;;
20908;SDS011;10614;53.198;6.570;2023-02-03T04:51:02;9.77;;;1.70;;
20908;SDS011;10614;53.198;6.570;2023-02-03T04:53:04;9.27;;;1.50;;
20908;SDS011;10614;53.198;6.570;2023-02-03T04:55:06;8.07;;;1.60;;
20908;SDS011;10614;53.198;6.570;2023-02-03T04:57:08;8.13;;;1.10;;
20908;SDS011;10614;53.198;6.570;2023-02-03T04:59:11;6.20;;;1.35;;
20908;SDS011;10614;53.198;6.570;2023-02-03T05:01:13;9.27;;;1.50;;
20908;SDS011;10614;53.198;6.570;2023-02-03T05:03:15;5.57;;;1.30;;
20908;SDS011;10614;53.198;6.570;2023-02-03T05:05:16;6.20;;;0.98;;
20908;SDS011;10614;53.198;6.570;2023-02-03T05:07:20;8.73;;;1.10;;
20908;SDS011;10614;53.198;6.570;2023-02-03T05:09:22;5.93;;;1.30;;
20908;SDS011;10614;53.198;6.570;2023-02-03T05:11:23;10.75;;;1.27;;
20908;SDS011;10614;53.198;6.570;2023-02-03T05:13:25;10.45;;;2.42;;
20908;SDS011;10614;53.198;6.570;2023-02-03T05:15:29;7.60;;;1.35;;
20908;SDS011;10614;53.198;6.570;2023-02-03T05:17:30;8.25;;;1.58;;
20908;SDS011;10614;53.198;6.570;2023-02-03T05:19:37;7.47;;;1.58;;
20908;SDS011;10614;53.198;6.570;2023-02-03T05:21:39;7.55;;;1.70;;
20908;SDS011;10614;53.198;6.570;2023-02-03T05:23:41;6.60;;;1.40;;
20908;SDS011;10614;53.198;6.570;2023-02-03T05:25:43;5.45;;;1.27;;
20908;SDS011;10614;53.198;6.570;2023-02-03T05:27:44;8.35;;;1.23;;
20908;SDS011;10614;53.198;6.570;2023-02-03T05:29:46;8.65;;;1.60;;
20908;SDS011;10614;53.198;6.570;2023-02-03T05:31:49;9.07;;;1.33;;
20908;SDS011;10614;53.198;6.570;2023-02-03T05:33:50;6.53;;;1.40;;
20908;SDS011;10614;53.198;6.570;2023-02-03T05:35:52;5.82;;;1.23;;
20908;SDS011;10614;53.198;6.570;2023-02-03T05:37:54;5.45;;;1.65;;
20908;SDS011;10614;53.198;6.570;2023-02-03T05:39:55;7.78;;;1.52;;
20908;SDS011;10614;53.198;6.570;2023-02-03T05:42:17;9.18;;;1.33;;
20908;SDS011;10614;53.198;6.570;2023-02-03T05:44:18;6.75;;;1.27;;
20908;SDS011;10614;53.198;6.570;2023-02-03T05:46:19;7.22;;;1.20;;
20908;SDS011;10614;53.198;6.570;2023-02-03T05:48:23;7.68;;;1.70;;
20908;SDS011;10614;53.198;6.570;2023-02-03T05:50:24;11.95;;;1.63;;
20908;SDS011;10614;53.198;6.570;2023-02-03T05:52:29;6.22;;;1.65;;
20908;SDS011;10614;53.198;6.570;2023-02-03T05:54:30;9.65;;;1.83;;
20908;SDS011;10614;53.198;6.570;2023-02-03T05:56:32;12.13;;;2.13;;
20908;SDS011;10614;53.198;6.570;2023-02-03T05:58:34;4.50;;;1.20;;
20908;SDS011;10614;53.198;6.570;2023-02-03T06:00:36;8.30;;;1.65;;
20908;SDS011;10614;53.198;6.570;2023-02-03T06:02:37;11.68;;;1.75;;
20908;SDS011;10614;53.198;6.570;2023-02-03T06:04:40;7.25;;;1.00;;
20908;SDS011;10614;53.198;6.570;2023-02-03T06:06:42;9.43;;;2.35;;
20908;SDS011;10614;53.198;6.570;2023-02-03T06:08:43;7.03;;;2.10;;
20908;SDS011;10614;53.198;6.570;2023-02-03T06:10:45;9.23;;;1.63;;
20908;SDS011;10614;53.198;6.570;2023-02-03T06:12:47;7.13;;;1.83;;
20908;SDS011;10614;53.198;6.570;2023-02-03T06:14:49;8.50;;;2.28;;
20908;SDS011;10614;53.198;6.570;2023-02-03T06:16:50;7.43;;;1.52;;
20908;SDS011;10614;53.198;6.570;2023-02-03T06:18:52;9.60;;;1.58;;
20908;SDS011;10614;53.198;6.570;2023-02-03T06:23:00;14.20;;;1.90;;
20908;SDS011;10614;53.198;6.570;2023-02-03T06:25:01;7.00;;;1.50;;
20908;SDS011;10614;53.198;6.570;2023-02-03T06:27:03;10.85;;;1.70;;
20908;SDS011;10614;53.198;6.570;2023-02-03T06:29:05;19.38;;;2.70;;
20908;SDS011;10614;53.198;6.570;2023-02-03T06:31:06;10.35;;;1.80;;
20908;SDS011;10614;53.198;6.570;2023-02-03T06:33:08;9.63;;;2.28;;
20908;SDS011;10614;53.198;6.570;2023-02-03T06:35:10;12.07;;;2.70;;
20908;SDS011;10614;53.198;6.570;2023-02-03T06:37:13;8.80;;;2.30;;
20908;SDS011;10614;53.198;6.570;2023-02-03T06:39:15;15.02;;;3.00;;
20908;SDS011;10614;53.198;6.570;2023-02-03T06:41:16;10.05;;;2.28;;
20908;SDS011;10614;53.198;6.570;2023-02-03T06:43:18;7.78;;;1.70;;
20908;SDS011;10614;53.198;6.570;2023-02-03T06:45:19;9.20;;;2.70;;
20908;SDS011;10614;53.198;6.570;2023-02-03T06:47:23;11.25;;;2.50;;
20908;SDS011;10614;53.198;6.570;2023-02-03T06:49:24;11.40;;;2.38;;
20908;SDS011;10614;53.198;6.570;2023-02-03T06:51:26;12.25;;;2.10;;
20908;SDS011;10614;53.198;6.570;2023-02-03T06:53:29;11.43;;;2.15;;
20908;SDS011;10614;53.198;6.570;2023-02-03T06:55:30;12.25;;;1.92;;
20908;SDS011;10614;53.198;6.570;2023-02-03T06:57:32;14.05;;;2.55;;
20908;SDS011;10614;53.198;6.570;2023-02-03T06:59:33;13.88;;;2.22;;
20908;SDS011;10614;53.198;6.570;2023-02-03T07:01:35;10.38;;;1.80;;
20908;SDS011;10614;53.198;6.570;2023-02-03T07:03:37;8.13;;;1.83;;
20908;SDS011;10614;53.198;6.570;2023-02-03T07:05:39;16.23;;;2.85;;
20908;SDS011;10614;53.198;6.570;2023-02-03T07:07:41;12.43;;;2.08;;
20908;SDS011;10614;53.198;6.570;2023-02-03T07:09:44;8.52;;;1.90;;
20908;SDS011;10614;53.198;6.570;2023-02-03T07:11:45;13.32;;;2.25;;
20908;SDS011;10614;53.198;6.570;2023-02-03T07:13:47;16.77;;;2.72;;
20908;SDS011;10614;53.198;6.570;2023-02-03T07:15:49;9.95;;;2.20;;
20908;SDS011;10614;53.198;6.570;2023-02-03T07:17:50;12.88;;;2.70;;
20908;SDS011;10614;53.198;6.570;2023-02-03T07:19:53;8.38;;;1.75;;
20908;SDS011;10614;53.198;6.570;2023-02-03T07:21:55;17.08;;;2.25;;
20908;SDS011;10614;53.198;6.570;2023-02-03T07:23:57;15.90;;;2.45;;
20908;SDS011;10614;53.198;6.570;2023-02-03T07:26:00;10.68;;;2.03;;
20908;SDS011;10614;53.198;6.570;2023-02-03T07:28:03;10.25;;;1.75;;
20908;SDS011;10614;53.198;6.570;2023-02-03T07:30:06;10.68;;;2.08;;
20908;SDS011;10614;53.198;6.570;2023-02-03T07:32:09;12.20;;;2.30;;
20908;SDS011;10614;53.198;6.570;2023-02-03T07:34:11;13.05;;;2.33;;
20908;SDS011;10614;53.198;6.570;2023-02-03T07:36:12;16.30;;;2.17;;
20908;SDS011;10614;53.198;6.570;2023-02-03T07:38:14;19.33;;;2.80;;
20908;SDS011;10614;53.198;6.570;2023-02-03T07:40:16;8.75;;;2.60;;
20908;SDS011;10614;53.198;6.570;2023-02-03T07:42:19;9.82;;;2.20;;
20908;SDS011;10614;53.198;6.570;2023-02-03T07:44:20;10.88;;;2.38;;
20908;SDS011;10614;53.198;6.570;2023-02-03T07:46:22;14.77;;;1.92;;
20908;SDS011;10614;53.198;6.570;2023-02-03T07:48:24;16.15;;;2.35;;
20908;SDS011;10614;53.198;6.570;2023-02-03T07:50:26;13.35;;;2.33;;
20908;SDS011;10614;53.198;6.570;2023-02-03T07:52:28;10.43;;;2.30;;
20908;SDS011;10614;53.198;6.570;2023-02-03T07:54:29;12.13;;;2.33;;
20908;SDS011;10614;53.198;6.570;2023-02-03T07:56:31;20.67;;;3.10;;
20908;SDS011;10614;53.198;6.570;2023-02-03T07:58:34;12.40;;;2.47;;
20908;SDS011;10614;53.198;6.570;2023-02-03T08:00:35;12.27;;;2.08;;
20908;SDS011;10614;53.198;6.570;2023-02-03T08:02:37;7.80;;;2.10;;
20908;SDS011;10614;53.198;6.570;2023-02-03T08:04:39;11.00;;;3.00;;
20908;SDS011;10614;53.198;6.570;2023-02-03T08:06:41;19.20;;;2.85;;
20908;SDS011;10614;53.198;6.570;2023-02-03T08:08:42;12.70;;;2.80;;
20908;SDS011;10614;53.198;6.570;2023-02-03T08:10:44;15.02;;;2.63;;
20908;SDS011;10614;53.198;6.570;2023-02-03T08:12:45;13.30;;;2.17;;
20908;SDS011;10614;53.198;6.570;2023-02-03T08:14:49;11.70;;;2.35;;
20908;SDS011;10614;53.198;6.570;2023-02-03T08:16:52;20.45;;;3.25;;
20908;SDS011;10614;53.198;6.570;2023-02-03T08:18:56;16.27;;;2.42;;
20908;SDS011;10614;53.198;6.570;2023-02-03T08:20:58;12.82;;;2.30;;
20908;SDS011;10614;53.198;6.570;2023-02-03T08:23:01;13.45;;;2.60;;
20908;SDS011;10614;53.198;6.570;2023-02-03T08:25:03;11.38;;;2.47;;
20908;SDS011;10614;53.198;6.570;2023-02-03T08:27:05;13.88;;;2.70;;
20908;SDS011;10614;53.198;6.570;2023-02-03T08:29:06;19.73;;;2.75;;
20908;SDS011;10614;53.198;6.570;2023-02-03T08:31:11;16.85;;;2.72;;
20908;SDS011;10614;53.198;6.570;2023-02-03T08:33:13;16.75;;;2.97;;
20908;SDS011;10614;53.198;6.570;2023-02-03T08:35:15;17.65;;;2.97;;
20908;SDS011;10614;53.198;6.570;2023-02-03T08:37:18;15.80;;;2.80;;
20908;SDS011;10614;53.198;6.570;2023-02-03T08:39:23;15.48;;;3.03;;
20908;SDS011;10614;53.198;6.570;2023-02-03T08:41:25;20.95;;;3.13;;
20908;SDS011;10614;53.198;6.570;2023-02-03T08:43:27;15.32;;;3.13;;
20908;SDS011;10614;53.198;6.570;2023-02-03T08:45:29;17.17;;;2.97;;
20908;SDS011;10614;53.198;6.570;2023-02-03T08:47:32;12.43;;;3.15;;
20908;SDS011;10614;53.198;6.570;2023-02-03T08:49:36;16.42;;;2.85;;
20908;SDS011;10614;53.198;6.570;2023-02-03T08:51:38;15.40;;;3.00;;
20908;SDS011;10614;53.198;6.570;2023-02-03T08:53:40;17.27;;;3.20;;
20908;SDS011;10614;53.198;6.570;2023-02-03T08:55:42;11.15;;;2.90;;
20908;SDS011;10614;53.198;6.570;2023-02-03T08:57:43;19.13;;;3.60;;
20908;SDS011;10614;53.198;6.570;2023-02-03T08:59:45;19.88;;;3.83;;
20908;SDS011;10614;53.198;6.570;2023-02-03T09:01:47;15.32;;;2.80;;
20908;SDS011;10614;53.198;6.570;2023-02-03T09:03:50;13.52;;;2.25;;
20908;SDS011;10614;53.198;6.570;2023-02-03T09:05:52;24.35;;;2.83;;
20908;SDS011;10614;53.198;6.570;2023-02-03T09:07:53;18.15;;;3.20;;
20908;SDS011;10614;53.198;6.570;2023-02-03T09:09:55;11.82;;;3.28;;
20908;SDS011;10614;53.198;6.570;2023-02-03T09:11:57;16.35;;;3.55;;
20908;SDS011;10614;53.198;6.570;2023-02-03T09:14:01;10.53;;;2.50;;
20908;SDS011;10614;53.198;6.570;2023-02-03T09:16:03;14.48;;;3.17;;
20908;SDS011;10614;53.198;6.570;2023-02-03T09:18:05;19.40;;;3.28;;
20908;SDS011;10614;53.198;6.570;2023-02-03T09:20:09;16.77;;;2.58;;
20908;SDS011;10614;53.198;6.570;2023-02-03T09:22:14;21.20;;;3.33;;
20908;SDS011;10614;53.198;6.570;2023-02-03T09:24:15;15.20;;;2.88;;
20908;SDS011;10614;53.198;6.570;2023-02-03T09:26:17;12.82;;;3.40;;
20908;SDS011;10614;53.198;6.570;2023-02-03T09:28:21;21.98;;;3.95;;
20908;SDS011;10614;53.198;6.570;2023-02-03T09:30:23;20.25;;;3.05;;
20908;SDS011;10614;53.198;6.570;2023-02-03T09:32:25;19.70;;;3.30;;
20908;SDS011;10614;53.198;6.570;2023-02-03T09:34:26;18.83;;;2.85;;
20908;SDS011;10614;53.198;6.570;2023-02-03T09:36:29;29.30;;;4.35;;
20908;SDS011;10614;53.198;6.570;2023-02-03T09:38:31;17.98;;;2.78;;
20908;SDS011;10614;53.198;6.570;2023-02-03T09:40:34;9.35;;;2.50;;
20908;SDS011;10614;53.198;6.570;2023-02-03T09:42:50;20.05;;;3.10;;
20908;SDS011;10614;53.198;6.570;2023-02-03T09:45:08;15.00;;;2.17;;
20908;SDS011;10614;53.198;6.570;2023-02-03T09:47:16;21.70;;;3.25;;
20908;SDS011;10614;53.198;6.570;2023-02-03T09:49:23;21.65;;;3.60;;
20908;SDS011;10614;53.198;6.570;2023-02-03T09:51:28;22.90;;;3.55;;
20908;SDS011;10614;53.198;6.570;2023-02-03T09:53:36;18.35;;;3.85;;
20908;SDS011;10614;53.198;6.570;2023-02-03T09:55:45;17.77;;;3.83;;
20908;SDS011;10614;53.198;6.570;2023-02-03T09:57:48;15.98;;;3.05;;
20908;SDS011;10614;53.198;6.570;2023-02-03T09:59:56;26.80;;;3.85;;
20908;SDS011;10614;53.198;6.570;2023-02-03T10:02:03;18.23;;;3.30;;
20908;SDS011;10614;53.198;6.570;2023-02-03T10:04:20;15.57;;;2.60;;
20908;SDS011;10614;53.198;6.570;2023-02-03T10:06:32;14.95;;;2.65;;
20908;SDS011;10614;53.198;6.570;2023-02-03T10:08:42;22.73;;;3.53;;
20908;SDS011;10614;53.198;6.570;2023-02-03T10:10:57;23.33;;;3.92;;
20908;SDS011;10614;53.198;6.570;2023-02-03T10:13:13;16.60;;;2.75;;
20908;SDS011;10614;53.198;6.570;2023-02-03T10:15:29;18.48;;;3.13;;
20908;SDS011;10614;53.198;6.570;2023-02-03T10:17:46;13.00;;;2.70;;
20908;SDS011;10614;53.198;6.570;2023-02-03T10:19:54;23.40;;;3.15;;
20908;SDS011;10614;53.198;6.570;2023-02-03T10:22:01;24.10;;;3.38;;
20908;SDS011;10614;53.198;6.570;2023-02-03T10:24:08;19.50;;;3.28;;
20908;SDS011;10614;53.198;6.570;2023-02-03T10:26:15;23.63;;;2.67;;
20908;SDS011;10614;53.198;6.570;2023-02-03T10:28:23;23.17;;;4.00;;
20908;SDS011;10614;53.198;6.570;2023-02-03T10:30:28;15.32;;;3.42;;
20908;SDS011;10614;53.198;6.570;2023-02-03T10:32:33;21.00;;;3.03;;
20908;SDS011;10614;53.198;6.570;2023-02-03T10:34:37;18.70;;;3.92;;
20908;SDS011;10614;53.198;6.570;2023-02-03T10:36:43;16.80;;;3.58;;
20908;SDS011;10614;53.198;6.570;2023-02-03T10:38:57;14.80;;;2.65;;
20908;SDS011;10614;53.198;6.570;2023-02-03T10:41:03;22.13;;;3.42;;
20908;SDS011;10614;53.198;6.570;2023-02-03T10:43:06;24.17;;;4.05;;
20908;SDS011;10614;53.198;6.570;2023-02-03T10:45:27;22.92;;;3.42;;
20908;SDS011;10614;53.198;6.570;2023-02-03T10:47:30;19.75;;;4.18;;
20908;SDS011;10614;53.198;6.570;2023-02-03T10:49:35;23.42;;;3.47;;
20908;SDS011;10614;53.198;6.570;2023-02-03T10:51:37;23.30;;;2.63;;
20908;SDS011;10614;53.198;6.570;2023-02-03T10:53:43;20.45;;;3.33;;
20908;SDS011;10614;53.198;6.570;2023-02-03T10:55:47;22.58;;;3.00;;
20908;SDS011;10614;53.198;6.570;2023-02-03T10:57:50;24.35;;;3.67;;
20908;SDS011;10614;53.198;6.570;2023-02-03T10:59:52;18.85;;;2.83;;
20908;SDS011;10614;53.198;6.570;2023-02-03T11:02:06;25.90;;;4.30;;
20908;SDS011;10614;53.198;6.570;2023-02-03T11:04:21;30.40;;;4.15;;
20908;SDS011;10614;53.198;6.570;2023-02-03T11:06:25;17.58;;;3.83;;
20908;SDS011;10614;53.198;6.570;2023-02-03T11:08:28;34.50;;;3.80;;
20908;SDS011;10614;53.198;6.570;2023-02-03T11:10:31;17.23;;;3.22;;
20908;SDS011;10614;53.198;6.570;2023-02-03T11:12:37;19.80;;;3.42;;
20908;SDS011;10614;53.198;6.570;2023-02-03T11:14:40;19.80;;;3.50;;
20908;SDS011;10614;53.198;6.570;2023-02-03T11:16:43;26.23;;;4.28;;
20908;SDS011;10614;53.198;6.570;2023-02-03T11:18:53;25.90;;;3.95;;
20908;SDS011;10614;53.198;6.570;2023-02-03T11:20:56;27.02;;;4.00;;
20908;SDS011;10614;53.198;6.570;2023-02-03T11:22:59;22.17;;;2.88;;
20908;SDS011;10614;53.198;6.570;2023-02-03T11:25:02;24.10;;;3.10;;
20908;SDS011;10614;53.198;6.570;2023-02-03T11:29:15;21.77;;;3.03;;
20908;SDS011;10614;53.198;6.570;2023-02-03T11:31:21;19.10;;;3.95;;
20908;SDS011;10614;53.198;6.570;2023-02-03T11:33:25;21.63;;;4.07;;
20908;SDS011;10614;53.198;6.570;2023-02-03T11:35:29;21.20;;;3.67;;
20908;SDS011;10614;53.198;6.570;2023-02-03T11:37:34;21.88;;;3.78;;
20908;SDS011;10614;53.198;6.570;2023-02-03T11:39:38;14.65;;;3.10;;
20908;SDS011;10614;53.198;6.570;2023-02-03T11:41:39;33.28;;;3.40;;
20908;SDS011;10614;53.198;6.570;2023-02-03T11:43:43;22.13;;;3.75;;
20908;SDS011;10614;53.198;6.570;2023-02-03T11:45:47;22.67;;;3.83;;
20908;SDS011;10614;53.198;6.570;2023-02-03T11:47:53;18.50;;;3.50;;
20908;SDS011;10614;53.198;6.570;2023-02-03T11:50:02;22.92;;;3.47;;
20908;SDS011;10614;53.198;6.570;2023-02-03T11:52:23;23.15;;;2.85;;
20908;SDS011;10614;53.198;6.570;2023-02-03T11:54:46;17.55;;;3.22;;
20908;SDS011;10614;53.198;6.570;2023-02-03T11:57:05;23.70;;;3.65;;
20908;SDS011;10614;53.198;6.570;2023-02-03T12:04:51;21.33;;;3.47;;
20908;SDS011;10614;53.198;6.570;2023-02-03T12:07:18;23.00;;;3.38;;
20908;SDS011;10614;53.198;6.570;2023-02-03T12:09:32;28.08;;;3.78;;
20908;SDS011;10614;53.198;6.570;2023-02-03T12:11:46;16.23;;;2.88;;
20908;SDS011;10614;53.198;6.570;2023-02-03T12:14:09;23.55;;;3.35;;
20908;SDS011;10614;53.198;6.570;2023-02-03T12:16:29;23.27;;;3.28;;
20908;SDS011;10614;53.198;6.570;2023-02-03T12:18:57;27.58;;;3.47;;
20908;SDS011;10614;53.198;6.570;2023-02-03T12:21:13;28.17;;;4.28;;
20908;SDS011;10614;53.198;6.570;2023-02-03T12:23:36;14.07;;;2.17;;
20908;SDS011;10614;53.198;6.570;2023-02-03T12:25:46;21.52;;;3.60;;
20908;SDS011;10614;53.198;6.570;2023-02-03T12:28:03;15.55;;;2.30;;
20908;SDS011;10614;53.198;6.570;2023-02-03T12:30:16;15.80;;;2.60;;
20908;SDS011;10614;53.198;6.570;2023-02-03T12:32:24;21.95;;;2.85;;
20908;SDS011;10614;53.198;6.570;2023-02-03T12:34:36;16.70;;;2.65;;
20908;SDS011;10614;53.198;6.570;2023-02-03T12:36:41;21.15;;;2.90;;
20908;SDS011;10614;53.198;6.570;2023-02-03T12:38:48;21.73;;;3.50;;
20908;SDS011;10614;53.198;6.570;2023-02-03T12:40:54;13.90;;;2.63;;
20908;SDS011;10614;53.198;6.570;2023-02-03T12:43:00;24.88;;;3.50;;